createdAt,value
2023-05-16T00:01:18.235Z,8.60
2023-05-16T00:03:21.089Z,8.80
2023-05-16T00:05:24.002Z,8.93
2023-05-16T00:07:26.705Z,8.93
2023-05-16T00:09:29.321Z,9.85
2023-05-16T00:11:31.964Z,9.38
2023-05-16T00:13:36.409Z,10.38
2023-05-16T00:15:39.797Z,10.20
2023-05-16T00:17:43.737Z,8.43
2023-05-16T00:19:47.420Z,9.68
2023-05-16T00:21:50.168Z,9.20
2023-05-16T00:23:53.093Z,8.50
2023-05-16T00:25:56.117Z,8.35
2023-05-16T00:27:59.010Z,10.38
2023-05-16T00:30:03.729Z,9.50
2023-05-16T00:32:08.743Z,8.85
2023-05-16T00:34:11.689Z,9.75
2023-05-16T00:36:14.374Z,10.68
2023-05-16T00:38:17.133Z,10.18
2023-05-16T00:40:19.797Z,9.85
2023-05-16T00:42:22.624Z,10.55
2023-05-16T00:44:25.320Z,9.40
2023-05-16T00:46:29.511Z,10.02
2023-05-16T00:48:32.623Z,10.60
2023-05-16T00:50:35.599Z,10.35
2023-05-16T00:52:38.601Z,11.32
2023-05-16T00:54:41.276Z,10.35
2023-05-16T00:56:43.994Z,9.82
2023-05-16T00:58:46.820Z,10.30
2023-05-16T01:00:49.923Z,12.63
2023-05-16T01:02:54.158Z,11.98
2023-05-16T01:04:57.301Z,12.25
2023-05-16T01:07:00.044Z,13.93
2023-05-16T01:09:02.839Z,14.15
2023-05-16T01:11:17.250Z,14.25
2023-05-16T01:13:29.099Z,15.50
2023-05-16T01:15:40.747Z,14.80
2023-05-16T01:17:58.037Z,14.90
2023-05-16T01:20:11.276Z,15.27
2023-05-16T01:22:21.624Z,14.93
2023-05-16T01:24:34.224Z,15.13
2023-05-16T01:28:42.173Z,13.77
2023-05-16T01:30:45.803Z,13.93
2023-05-16T01:32:48.443Z,14.00
2023-05-16T01:34:52.084Z,15.18
2023-05-16T01:37:02.442Z,14.45
2023-05-16T01:39:15.908Z,16.52
2023-05-16T01:41:24.041Z,16.38
2023-05-16T01:43:38.183Z,16.50
2023-05-16T01:45:46.834Z,16.00
2023-05-16T01:48:01.850Z,17.60
2023-05-16T01:50:11.173Z,17.48
2023-05-16T01:52:20.602Z,18.98
2023-05-16T01:54:27.047Z,17.15
2023-05-16T01:56:31.011Z,18.27
2023-05-16T01:58:36.965Z,17.70
2023-05-16T02:00:40.684Z,18.30
2023-05-16T02:02:43.476Z,18.20
2023-05-16T02:04:46.145Z,18.48
2023-05-16T02:06:49.262Z,19.48
2023-05-16T02:08:52.020Z,20.30
2023-05-16T02:10:54.715Z,20.25
2023-05-16T02:12:57.790Z,19.67
2023-05-16T02:15:01.804Z,21.35
2023-05-16T02:17:04.578Z,21.40
2023-05-16T02:19:07.377Z,19.30
2023-05-16T02:21:10.111Z,20.30
2023-05-16T02:23:12.770Z,19.83
2023-05-16T02:25:16.362Z,20.27
2023-05-16T02:27:19.145Z,21.00
2023-05-16T02:29:21.832Z,19.23
2023-05-16T02:31:30.339Z,20.85
2023-05-16T02:33:33.158Z,19.10
2023-05-16T02:35:35.850Z,19.48
2023-05-16T02:37:38.558Z,21.60
2023-05-16T02:39:41.224Z,21.20
2023-05-16T02:41:43.855Z,19.98
2023-05-16T02:43:47.211Z,20.67
2023-05-16T02:45:50.286Z,21.45
2023-05-16T02:47:54.307Z,19.20
2023-05-16T02:49:57.250Z,18.00
2023-05-16T02:51:59.891Z,20.50
2023-05-16T02:54:02.716Z,19.27
2023-05-16T02:56:06.951Z,21.02
2023-05-16T02:58:09.639Z,19.63
2023-05-16T03:00:15.129Z,21.25
2023-05-16T03:02:18.844Z,19.42
2023-05-16T03:04:23.652Z,20.67
2023-05-16T03:06:26.346Z,19.92
2023-05-16T03:08:29.162Z,21.38
2023-05-16T03:10:31.853Z,19.67
2023-05-16T03:12:34.597Z,19.92
2023-05-16T03:14:37.227Z,20.38
2023-05-16T03:16:41.651Z,19.42
2023-05-16T03:18:44.511Z,18.75
2023-05-16T03:20:48.528Z,20.27
2023-05-16T03:22:51.154Z,20.63
2023-05-16T03:24:53.849Z,20.85
2023-05-16T03:26:56.650Z,19.52
2023-05-16T03:28:59.358Z,21.92
2023-05-16T03:31:02.154Z,21.75
2023-05-16T03:33:05.156Z,22.63
2023-05-16T03:35:08.359Z,21.95
2023-05-16T03:37:14.936Z,20.55
2023-05-16T03:39:17.786Z,21.60
2023-05-16T03:41:21.022Z,22.15
2023-05-16T03:43:23.733Z,23.40
2023-05-16T03:45:26.680Z,24.02
2023-05-16T03:47:31.852Z,22.55
2023-05-16T03:49:34.506Z,21.13
2023-05-16T03:51:37.133Z,22.75
2023-05-16T03:53:41.422Z,22.55
2023-05-16T03:55:45.099Z,24.05
2023-05-16T03:57:50.006Z,23.67
2023-05-16T03:59:52.714Z,22.55
2023-05-16T04:01:55.621Z,24.05
2023-05-16T04:03:58.232Z,21.98
2023-05-16T04:06:01.201Z,24.15
2023-05-16T04:08:03.930Z,23.63
2023-05-16T04:10:08.807Z,23.63
2023-05-16T04:12:11.473Z,23.30
2023-05-16T04:14:14.320Z,25.80
2023-05-16T04:16:17.142Z,25.60
2023-05-16T04:18:19.980Z,23.67
2023-05-16T04:20:23.056Z,23.30
2023-05-16T04:22:25.959Z,24.65
2023-05-16T04:24:29.039Z,25.98
2023-05-16T04:26:33.025Z,23.40
2023-05-16T04:28:35.943Z,20.85
2023-05-16T04:30:38.845Z,22.35
2023-05-16T04:32:41.670Z,22.10
2023-05-16T04:34:46.668Z,24.25
2023-05-16T04:36:49.385Z,24.85
2023-05-16T04:38:55.317Z,23.95
2023-05-16T04:40:58.491Z,23.23
2023-05-16T04:43:02.500Z,25.52
2023-05-16T04:45:06.659Z,25.17
2023-05-16T04:47:09.391Z,25.85
2023-05-16T04:49:12.900Z,24.52
2023-05-16T04:51:15.585Z,24.05
2023-05-16T04:53:18.183Z,24.40
2023-05-16T04:55:20.850Z,23.10
2023-05-16T04:57:23.642Z,22.85
2023-05-16T04:59:27.663Z,22.75
2023-05-16T05:01:30.341Z,22.33
2023-05-16T05:03:33.216Z,21.88
2023-05-16T05:05:35.978Z,24.52
2023-05-16T05:07:38.648Z,21.65
2023-05-16T05:09:43.753Z,21.02
2023-05-16T05:11:46.427Z,24.38
2023-05-16T05:13:50.268Z,24.60
2023-05-16T05:15:56.420Z,23.40
2023-05-16T05:17:59.318Z,23.35
2023-05-16T05:20:03.323Z,22.00
2023-05-16T05:22:06.440Z,23.58
2023-05-16T05:24:09.142Z,23.65
2023-05-16T05:26:12.004Z,24.13
2023-05-16T05:28:14.631Z,21.73
2023-05-16T05:30:17.304Z,22.70
2023-05-16T05:32:21.274Z,22.83
2023-05-16T05:34:23.938Z,22.70
2023-05-16T05:36:26.525Z,21.13
2023-05-16T05:38:29.188Z,21.52
2023-05-16T05:40:32.056Z,22.63
2023-05-16T05:42:35.237Z,21.38
2023-05-16T05:44:38.601Z,19.83
2023-05-16T05:46:41.660Z,22.17
2023-05-16T05:48:45.952Z,22.45
2023-05-16T05:50:48.683Z,20.63
2023-05-16T05:52:51.420Z,20.13
2023-05-16T05:54:54.094Z,21.63
2023-05-16T05:56:57.030Z,20.58
2023-05-16T05:58:59.708Z,20.85
2023-05-16T06:01:02.466Z,22.38
2023-05-16T06:03:05.714Z,20.58
2023-05-16T06:05:10.574Z,22.15
2023-05-16T06:07:15.260Z,20.52
2023-05-16T06:09:17.948Z,20.80
2023-05-16T06:11:21.448Z,21.17
2023-05-16T06:13:24.106Z,19.65
2023-05-16T06:15:27.427Z,20.50
2023-05-16T06:17:30.356Z,20.73
2023-05-16T06:19:32.981Z,20.10
2023-05-16T06:21:37.266Z,19.73
2023-05-16T06:23:39.827Z,18.42
2023-05-16T06:25:42.495Z,18.63
2023-05-16T06:27:45.097Z,19.05
2023-05-16T06:29:47.714Z,18.77
2023-05-16T06:31:50.441Z,18.77
2023-05-16T06:33:53.138Z,19.45
2023-05-16T06:35:55.806Z,19.60
2023-05-16T06:37:59.847Z,18.90
2023-05-16T06:40:02.530Z,17.23
2023-05-16T06:42:06.023Z,17.83
2023-05-16T06:44:08.714Z,17.35
2023-05-16T06:46:11.434Z,18.50
2023-05-16T06:48:15.567Z,18.42
2023-05-16T06:50:18.284Z,18.77
2023-05-16T06:52:21.147Z,17.13
2023-05-16T06:54:25.169Z,18.33
2023-05-16T06:56:28.699Z,18.23
2023-05-16T06:58:31.554Z,16.30
2023-05-16T07:00:34.232Z,16.95
2023-05-16T07:02:36.963Z,17.40
2023-05-16T07:04:39.660Z,16.65
2023-05-16T07:06:42.487Z,15.52
2023-05-16T07:08:45.190Z,15.48
2023-05-16T07:10:49.251Z,15.90
2023-05-16T07:12:51.929Z,16.23
2023-05-16T07:14:54.607Z,15.10
2023-05-16T07:16:57.448Z,16.10
2023-05-16T07:19:00.267Z,16.23
2023-05-16T07:21:02.976Z,15.00
2023-05-16T07:23:05.767Z,16.27
2023-05-16T07:25:12.616Z,15.65
2023-05-16T07:27:16.707Z,13.73
2023-05-16T07:29:19.493Z,13.35
2023-05-16T07:31:22.243Z,12.57
2023-05-16T07:33:25.313Z,14.48
2023-05-16T07:35:28.144Z,15.43
2023-05-16T07:37:31.268Z,13.55
2023-05-16T07:39:33.978Z,13.57
2023-05-16T07:41:36.621Z,13.63
2023-05-16T07:43:40.644Z,13.63
2023-05-16T07:45:43.538Z,14.23
2023-05-16T07:47:46.299Z,12.02
2023-05-16T07:49:49.186Z,12.35
2023-05-16T07:51:51.978Z,11.43
2023-05-16T07:53:54.701Z,10.18
2023-05-16T07:55:57.514Z,9.57
2023-05-16T07:58:00.187Z,10.20
2023-05-16T08:00:05.101Z,9.27
2023-05-16T08:02:08.010Z,9.20
2023-05-16T08:04:10.806Z,8.60
2023-05-16T08:06:13.564Z,8.13
2023-05-16T08:08:16.368Z,8.27
2023-05-16T08:10:19.165Z,7.53
2023-05-16T08:12:21.938Z,7.20
2023-05-16T08:14:24.744Z,8.02
2023-05-16T08:16:28.884Z,8.07
2023-05-16T08:18:31.668Z,8.00
2023-05-16T08:20:34.347Z,7.93
2023-05-16T08:22:37.078Z,8.43
2023-05-16T08:24:39.794Z,8.18
2023-05-16T08:26:42.508Z,8.10
2023-05-16T08:28:45.270Z,8.20
2023-05-16T08:30:48.204Z,8.30
2023-05-16T08:32:52.363Z,7.97
2023-05-16T08:34:55.185Z,7.68
2023-05-16T08:36:57.797Z,8.70
2023-05-16T08:39:00.554Z,8.93
2023-05-16T08:41:03.327Z,8.27
2023-05-16T08:43:06.391Z,8.70
2023-05-16T08:45:09.894Z,8.48
2023-05-16T08:47:14.775Z,8.55
2023-05-16T08:49:19.797Z,8.52
2023-05-16T08:51:22.674Z,9.05
2023-05-16T08:53:32.778Z,9.32
2023-05-16T08:55:36.453Z,9.85
2023-05-16T08:57:39.972Z,9.20
2023-05-16T08:59:43.161Z,9.77
2023-05-16T09:01:46.137Z,9.70
2023-05-16T09:03:49.898Z,9.73
2023-05-16T09:05:54.026Z,9.98
2023-05-16T09:07:56.756Z,10.27
2023-05-16T09:09:59.515Z,10.73
2023-05-16T09:12:02.271Z,10.13
2023-05-16T09:14:05.938Z,10.43
2023-05-16T09:16:13.370Z,11.40
2023-05-16T09:18:16.087Z,11.90
2023-05-16T09:20:22.505Z,12.98
2023-05-16T09:22:26.540Z,12.85
2023-05-16T09:24:29.461Z,12.57
2023-05-16T09:26:33.501Z,12.10
2023-05-16T09:28:39.025Z,12.10
2023-05-16T09:30:42.586Z,12.48
2023-05-16T09:32:46.038Z,12.35
2023-05-16T09:34:51.481Z,12.63
2023-05-16T09:36:55.953Z,12.50
2023-05-16T09:39:00.226Z,13.10
2023-05-16T09:41:03.543Z,12.30
2023-05-16T09:43:07.835Z,14.43
2023-05-16T09:45:14.088Z,13.52
2023-05-16T09:47:17.531Z,13.07
2023-05-16T09:49:20.532Z,13.68
2023-05-16T09:51:24.290Z,12.20
2023-05-16T09:53:28.588Z,15.55
2023-05-16T09:55:34.039Z,13.98
2023-05-16T09:57:39.512Z,13.18
2023-05-16T09:59:43.027Z,14.60
2023-05-16T10:01:46.235Z,12.80
2023-05-16T10:03:51.897Z,13.30
2023-05-16T10:05:55.970Z,13.77
2023-05-16T10:07:59.425Z,13.63
2023-05-16T10:10:05.315Z,12.77
2023-05-16T10:12:14.202Z,13.27
2023-05-16T10:14:19.024Z,13.15
2023-05-16T10:16:24.358Z,14.32
2023-05-16T10:18:32.358Z,12.68
2023-05-16T10:20:36.023Z,12.88
2023-05-16T10:22:44.002Z,13.15
2023-05-16T10:24:51.714Z,13.82
2023-05-16T10:26:54.477Z,12.63
2023-05-16T10:28:58.613Z,12.77
2023-05-16T10:31:02.870Z,14.70
2023-05-16T10:33:06.021Z,14.50
2023-05-16T10:35:10.045Z,13.30
2023-05-16T10:37:12.923Z,12.63
2023-05-16T10:39:16.315Z,14.20
2023-05-16T10:41:22.047Z,13.30
2023-05-16T10:43:26.754Z,12.50
2023-05-16T10:45:31.813Z,14.27
2023-05-16T10:47:35.107Z,14.73
2023-05-16T10:49:42.325Z,13.27
2023-05-16T10:51:45.118Z,14.93
2023-05-16T10:53:48.347Z,14.38
2023-05-16T10:56:11.098Z,12.55
2023-05-16T10:58:13.934Z,13.88
2023-05-16T11:00:23.717Z,13.32
2023-05-16T11:02:30.337Z,13.20
2023-05-16T11:06:54.726Z,13.75
2023-05-16T11:09:06.510Z,11.65
2023-05-16T11:11:41.184Z,15.13
2023-05-16T11:13:55.988Z,13.32
2023-05-16T11:16:28.463Z,12.90
2023-05-16T11:18:34.681Z,12.32
2023-05-16T11:20:39.493Z,12.38
2023-05-16T11:22:42.228Z,12.05
2023-05-16T11:24:56.055Z,10.07
2023-05-16T11:27:00.928Z,9.68
2023-05-16T11:29:04.571Z,10.40
2023-05-16T11:31:07.334Z,11.32
2023-05-16T11:33:10.150Z,11.52
2023-05-16T11:35:16.829Z,10.63
2023-05-16T11:37:21.336Z,10.57
2023-05-16T11:39:25.519Z,10.80
2023-05-16T11:41:28.246Z,9.70
2023-05-16T11:43:31.271Z,9.95
2023-05-16T11:45:34.400Z,9.93
2023-05-16T11:47:39.105Z,9.25
2023-05-16T11:49:41.885Z,9.40
2023-05-16T11:51:46.826Z,9.82
2023-05-16T11:53:50.783Z,8.98
2023-05-16T11:55:55.737Z,8.45
2023-05-16T11:57:59.570Z,9.35
2023-05-16T12:00:07.978Z,9.38
2023-05-16T12:02:11.187Z,8.95
2023-05-16T12:04:15.507Z,9.13
2023-05-16T12:06:18.404Z,8.90
2023-05-16T12:08:24.688Z,9.07
2023-05-16T12:10:27.828Z,8.57
2023-05-16T12:12:31.004Z,8.88
2023-05-16T12:14:33.963Z,9.25
2023-05-16T12:16:38.092Z,9.10
2023-05-16T12:18:43.371Z,8.43
2023-05-16T12:20:46.580Z,8.88
2023-05-16T12:22:49.333Z,9.32
2023-05-16T12:24:53.503Z,8.52
2023-05-16T12:26:59.066Z,7.80
2023-05-16T12:29:03.517Z,8.63
2023-05-16T12:31:27.082Z,8.25
2023-05-16T12:33:38.651Z,7.85
2023-05-16T12:35:42.656Z,7.45
2023-05-16T12:37:45.555Z,7.18
2023-05-16T12:39:48.347Z,6.65
2023-05-16T12:41:52.376Z,5.90
2023-05-16T12:44:07.888Z,6.55
2023-05-16T12:46:12.029Z,6.45
2023-05-16T12:48:14.968Z,5.57
2023-05-16T12:50:18.438Z,5.65
2023-05-16T12:52:22.504Z,5.45
2023-05-16T12:54:25.496Z,6.00
2023-05-16T12:56:28.312Z,6.22
2023-05-16T12:58:32.880Z,5.63
2023-05-16T13:00:36.521Z,5.93
2023-05-16T13:02:39.481Z,5.40
2023-05-16T13:04:42.250Z,5.35
2023-05-16T13:06:58.706Z,4.97
2023-05-16T13:09:02.770Z,5.13
2023-05-16T13:11:05.542Z,5.00
2023-05-16T13:13:08.218Z,4.55
2023-05-16T13:15:13.000Z,4.50
2023-05-16T13:17:15.666Z,4.43
2023-05-16T13:19:18.520Z,4.55
2023-05-16T13:21:22.533Z,4.50
2023-05-16T13:23:25.224Z,4.53
2023-05-16T13:25:28.223Z,4.28
2023-05-16T13:27:31.397Z,4.38
2023-05-16T13:29:34.150Z,4.25
2023-05-16T13:31:38.358Z,4.18
2023-05-16T13:33:41.332Z,4.05
2023-05-16T13:35:44.425Z,4.43
2023-05-16T13:37:47.175Z,4.05
2023-05-16T13:39:49.879Z,4.35
2023-05-16T13:41:52.640Z,3.40
2023-05-16T13:43:55.453Z,3.67
2023-05-16T13:45:58.222Z,3.97
2023-05-16T13:48:02.376Z,3.45
2023-05-16T13:50:09.154Z,3.30
2023-05-16T13:52:11.833Z,3.75
2023-05-16T13:54:14.535Z,2.80
2023-05-16T13:56:17.258Z,3.28
2023-05-16T13:58:19.934Z,2.80
2023-05-16T14:02:28.245Z,3.17
2023-05-16T14:04:32.362Z,3.40
2023-05-16T14:06:35.027Z,3.63
2023-05-16T14:08:37.765Z,3.60
2023-05-16T14:10:40.488Z,3.90
2023-05-16T14:12:43.533Z,2.90
2023-05-16T14:14:46.316Z,3.47
2023-05-16T14:16:49.162Z,3.22
2023-05-16T14:18:51.902Z,3.33
2023-05-16T14:20:56.583Z,3.35
2023-05-16T14:22:59.245Z,2.97
2023-05-16T14:25:01.928Z,3.20
2023-05-16T14:27:04.951Z,3.33
2023-05-16T14:29:07.693Z,3.40
2023-05-16T14:31:10.598Z,3.60
2023-05-16T14:33:13.267Z,3.30
2023-05-16T14:35:16.176Z,3.38
2023-05-16T14:37:20.273Z,3.42
2023-05-16T14:39:23.004Z,3.50
2023-05-16T14:41:25.686Z,3.78
2023-05-16T14:43:28.443Z,3.33
2023-05-16T14:45:32.405Z,3.40
2023-05-16T14:47:35.183Z,3.47
2023-05-16T14:49:37.999Z,3.25
2023-05-16T14:51:40.740Z,3.03
2023-05-16T14:53:46.904Z,3.35
2023-05-16T14:55:50.144Z,3.28
2023-05-16T14:57:59.235Z,3.08
2023-05-16T15:00:02.735Z,3.72
2023-05-16T15:02:06.465Z,3.17
2023-05-16T15:04:09.280Z,2.53
2023-05-16T15:06:12.053Z,2.60
2023-05-16T15:08:14.883Z,2.38
2023-05-16T15:10:18.965Z,2.60
2023-05-16T15:12:21.705Z,2.40
2023-05-16T15:14:25.678Z,2.00
2023-05-16T15:16:28.442Z,2.28
2023-05-16T15:18:31.208Z,2.58
2023-05-16T15:20:34.103Z,1.95
2023-05-16T15:22:36.855Z,1.90
2023-05-16T15:24:39.579Z,1.83
2023-05-16T15:26:43.793Z,1.90
2023-05-16T15:28:46.537Z,2.03
2023-05-16T15:30:49.221Z,1.73
2023-05-16T15:32:51.946Z,1.60
2023-05-16T15:34:54.990Z,2.05
2023-05-16T15:36:57.772Z,1.70
2023-05-16T15:39:00.431Z,1.60
2023-05-16T15:41:18.680Z,1.88
2023-05-16T15:43:29.844Z,1.80
2023-05-16T15:45:32.660Z,1.67
2023-05-16T15:47:35.546Z,1.83
2023-05-16T15:49:38.530Z,2.00
2023-05-16T15:51:41.183Z,1.80
2023-05-16T15:53:44.741Z,1.80
2023-05-16T15:55:47.892Z,1.73
2023-05-16T15:57:50.652Z,1.90
2023-05-16T15:59:54.721Z,1.80
2023-05-16T16:01:57.366Z,2.05
2023-05-16T16:04:00.084Z,1.65
2023-05-16T16:06:02.971Z,2.33
2023-05-16T16:08:06.043Z,1.80
2023-05-16T16:10:09.870Z,1.77
2023-05-16T16:12:12.608Z,1.83
2023-05-16T16:14:15.324Z,1.75
2023-05-16T16:16:19.469Z,1.80
2023-05-16T16:18:22.193Z,2.15
2023-05-16T16:20:25.024Z,1.85
2023-05-16T16:22:27.795Z,2.08
2023-05-16T16:24:30.514Z,2.10
2023-05-16T16:26:33.227Z,2.28
2023-05-16T16:28:35.941Z,1.90
2023-05-16T16:30:38.631Z,1.95
2023-05-16T16:32:42.838Z,1.70
2023-05-16T16:34:45.646Z,2.30
2023-05-16T16:36:48.457Z,1.92
2023-05-16T16:38:51.153Z,1.77
2023-05-16T16:40:53.876Z,2.38
2023-05-16T16:42:56.777Z,1.80
2023-05-16T16:44:59.464Z,1.80
2023-05-16T16:47:02.374Z,1.60
2023-05-16T16:49:06.567Z,1.60
2023-05-16T16:51:09.349Z,1.90
2023-05-16T16:53:11.977Z,1.92
2023-05-16T16:55:14.913Z,1.55
2023-05-16T16:57:17.745Z,1.80
2023-05-16T16:59:20.969Z,2.05
2023-05-16T17:01:24.022Z,1.83
2023-05-16T17:03:26.901Z,1.60
2023-05-16T17:05:31.087Z,1.77
2023-05-16T17:07:34.045Z,1.92
2023-05-16T17:09:37.100Z,1.50
2023-05-16T17:11:40.566Z,1.50
2023-05-16T17:13:43.477Z,1.80
2023-05-16T17:15:47.870Z,1.50
2023-05-16T17:17:51.574Z,1.90
2023-05-16T17:19:55.570Z,1.77
2023-05-16T17:21:59.616Z,2.13
2023-05-16T17:24:02.315Z,1.48
2023-05-16T17:26:04.979Z,1.70
2023-05-16T17:28:07.854Z,1.70
2023-05-16T17:30:11.463Z,1.55
2023-05-16T17:32:14.319Z,1.65
2023-05-16T17:34:17.283Z,1.67
2023-05-16T17:36:20.019Z,1.70
2023-05-16T17:38:24.078Z,1.50
2023-05-16T17:40:26.764Z,1.30
2023-05-16T17:42:29.462Z,1.90
2023-05-16T17:44:32.201Z,1.65
2023-05-16T17:46:35.220Z,1.90
2023-05-16T17:48:38.043Z,1.30
2023-05-16T17:50:41.363Z,1.70
2023-05-16T17:52:44.681Z,1.60
2023-05-16T17:54:48.892Z,1.75
2023-05-16T17:56:53.487Z,1.60
2023-05-16T17:58:56.423Z,1.40
2023-05-16T18:00:59.176Z,1.55
2023-05-16T18:03:02.077Z,1.40
2023-05-16T18:07:08.212Z,1.77
2023-05-16T18:09:11.634Z,1.75
2023-05-16T18:11:15.698Z,1.50
2023-05-16T18:13:18.712Z,1.75
2023-05-16T18:15:22.466Z,1.80
2023-05-16T18:17:25.180Z,1.65
2023-05-16T18:19:27.978Z,1.45
2023-05-16T18:21:30.907Z,1.83
2023-05-16T18:23:34.821Z,1.58
2023-05-16T18:25:37.586Z,2.60
2023-05-16T18:27:41.919Z,1.40
2023-05-16T18:29:44.605Z,1.60
2023-05-16T18:31:47.348Z,1.65
2023-05-16T18:33:50.318Z,1.55
2023-05-16T18:35:53.005Z,1.60
2023-05-16T18:37:55.783Z,1.60
2023-05-16T18:39:58.556Z,1.88
2023-05-16T18:42:01.318Z,1.67
2023-05-16T18:44:05.992Z,1.40
2023-05-16T18:46:08.691Z,1.30
2023-05-16T18:48:11.622Z,1.73
2023-05-16T18:50:14.586Z,1.33
2023-05-16T18:52:17.723Z,2.25
2023-05-16T18:54:22.595Z,1.45
2023-05-16T18:56:26.760Z,1.40
2023-05-16T18:58:29.457Z,1.40
2023-05-16T19:00:34.285Z,1.27
2023-05-16T19:02:42.119Z,1.40
2023-05-16T19:04:46.219Z,1.17
2023-05-16T19:06:49.539Z,1.35
2023-05-16T19:08:52.418Z,1.30
2023-05-16T19:10:55.312Z,1.48
2023-05-16T19:13:01.409Z,1.77
2023-05-16T19:15:04.324Z,1.65
2023-05-16T19:17:08.534Z,1.40
2023-05-16T19:19:11.331Z,1.35
2023-05-16T19:21:15.671Z,1.40
2023-05-16T19:23:18.454Z,1.60
2023-05-16T19:25:21.135Z,1.27
2023-05-16T19:27:23.877Z,1.10
2023-05-16T19:29:26.803Z,1.10
2023-05-16T19:31:29.759Z,1.42
2023-05-16T19:33:33.945Z,1.38
2023-05-16T19:35:38.428Z,1.40
2023-05-16T19:37:41.194Z,1.10
2023-05-16T19:39:43.933Z,1.10
2023-05-16T19:41:51.705Z,1.33
2023-05-16T19:43:55.136Z,1.00
2023-05-16T19:45:58.004Z,1.40
2023-05-16T19:48:00.834Z,1.60
2023-05-16T19:50:05.564Z,1.65
2023-05-16T19:52:09.234Z,1.35
2023-05-16T19:54:11.962Z,1.40
2023-05-16T19:56:14.897Z,1.88
2023-05-16T19:58:18.033Z,1.35
2023-05-16T20:00:21.275Z,1.55
2023-05-16T20:02:24.737Z,1.33
2023-05-16T20:04:28.152Z,1.10
2023-05-16T20:06:32.579Z,0.90
2023-05-16T20:08:35.483Z,1.20
2023-05-16T20:10:38.199Z,0.93
2023-05-16T20:12:40.930Z,1.10
2023-05-16T20:14:43.575Z,1.17
2023-05-16T20:16:46.292Z,1.10
2023-05-16T20:18:49.037Z,1.10
2023-05-16T20:20:51.878Z,1.10
2023-05-16T20:22:55.932Z,1.17
2023-05-16T20:24:58.639Z,1.17
2023-05-16T20:27:01.484Z,1.20
2023-05-16T20:29:04.765Z,1.20
2023-05-16T20:31:07.488Z,1.17
2023-05-16T20:33:10.325Z,1.15
2023-05-16T20:35:14.823Z,1.10
2023-05-16T20:39:21.883Z,1.15
2023-05-16T20:41:24.618Z,1.10
2023-05-16T20:43:27.331Z,1.30
2023-05-16T20:45:31.084Z,1.20
2023-05-16T20:47:33.760Z,1.10
2023-05-16T20:49:37.720Z,1.33
2023-05-16T20:51:40.401Z,1.10
2023-05-16T20:53:43.018Z,1.17
2023-05-16T20:55:47.092Z,1.25
2023-05-16T20:57:49.802Z,1.00
2023-05-16T20:59:52.484Z,1.30
2023-05-16T21:01:55.224Z,1.17
2023-05-16T21:03:58.108Z,1.15
2023-05-16T21:06:00.833Z,1.83
2023-05-16T21:08:03.627Z,1.10
2023-05-16T21:10:07.298Z,1.13
2023-05-16T21:12:11.646Z,1.20
2023-05-16T21:14:14.559Z,2.00
2023-05-16T21:16:17.310Z,1.20
2023-05-16T21:18:20.093Z,1.10
2023-05-16T21:20:25.519Z,1.10
2023-05-16T21:22:28.237Z,1.10
2023-05-16T21:24:34.973Z,1.20
2023-05-16T21:28:53.959Z,1.15
2023-05-16T21:30:58.033Z,0.95
2023-05-16T21:33:00.884Z,1.10
2023-05-16T21:35:04.716Z,1.40
2023-05-16T21:37:08.492Z,1.13
2023-05-16T21:39:11.253Z,1.00
2023-05-16T21:41:14.581Z,1.00
2023-05-16T21:43:17.485Z,1.70
2023-05-16T21:45:21.581Z,1.15
2023-05-16T21:47:24.567Z,0.82
2023-05-16T21:49:27.340Z,1.38
2023-05-16T21:51:30.684Z,1.30
2023-05-16T21:53:34.418Z,1.27
2023-05-16T21:55:37.261Z,1.10
2023-05-16T21:57:39.928Z,1.00
2023-05-16T21:59:42.641Z,1.10
2023-05-16T22:01:46.698Z,1.17
2023-05-16T22:03:49.417Z,1.45
2023-05-16T22:05:52.268Z,1.30
2023-05-16T22:07:55.144Z,1.48
2023-05-16T22:09:58.481Z,1.40
2023-05-16T22:12:01.155Z,1.20
2023-05-16T22:14:04.006Z,1.25
2023-05-16T22:16:07.582Z,1.10
2023-05-16T22:18:11.867Z,1.20
2023-05-16T22:20:14.929Z,1.15
2023-05-16T22:22:17.903Z,0.98
2023-05-16T22:24:20.605Z,0.95
2023-05-16T22:26:23.706Z,1.30
2023-05-16T22:28:26.439Z,1.17
2023-05-16T22:30:29.271Z,1.70
2023-05-16T22:32:32.057Z,1.00
2023-05-16T22:34:39.353Z,1.08
2023-05-16T22:36:42.499Z,1.60
2023-05-16T22:38:45.199Z,1.30
2023-05-16T22:40:47.885Z,1.15
2023-05-16T22:42:50.558Z,1.33
2023-05-16T22:44:53.209Z,1.45
2023-05-16T22:46:56.030Z,1.15
2023-05-16T22:48:58.774Z,1.00
2023-05-16T22:51:03.413Z,1.17
2023-05-16T22:53:06.236Z,1.33
2023-05-16T22:55:09.674Z,1.25
2023-05-16T22:57:12.357Z,1.30
2023-05-16T22:59:15.113Z,1.30
2023-05-16T23:01:17.902Z,1.45
2023-05-16T23:03:20.675Z,1.10
2023-05-16T23:05:23.574Z,1.15
2023-05-16T23:07:28.850Z,1.20
2023-05-16T23:09:31.691Z,1.08
2023-05-16T23:11:34.421Z,0.90
2023-05-16T23:13:37.154Z,1.08
2023-05-16T23:15:40.053Z,1.27
2023-05-16T23:17:42.780Z,1.48
2023-05-16T23:19:45.598Z,1.17
2023-05-16T23:21:48.409Z,1.30
2023-05-16T23:23:52.486Z,1.15
2023-05-16T23:25:55.182Z,1.10
2023-05-16T23:27:58.079Z,0.85
2023-05-16T23:30:01.015Z,1.10
2023-05-16T23:32:03.924Z,1.30
2023-05-16T23:34:08.012Z,1.02
2023-05-16T23:36:10.814Z,1.13
2023-05-16T23:38:13.617Z,1.33
2023-05-16T23:40:17.683Z,1.15
2023-05-16T23:42:20.540Z,1.13
2023-05-16T23:44:23.221Z,1.23
2023-05-16T23:46:26.195Z,1.40
2023-05-16T23:48:28.997Z,1.15
2023-05-16T23:50:32.063Z,1.00
2023-05-16T23:52:34.700Z,1.20
2023-05-16T23:54:37.344Z,1.25
2023-05-16T23:56:41.480Z,1.20
2023-05-16T23:58:44.132Z,1.30
